Time;durP1;ratioP1;P1;durP2;ratioP2;P2;SDS_P1;SDS_P2;PMS_P1;PMS_P2;Temp;Humidity;BMP_temperature;BMP_pressure;BME280_temperature;BME280_humidity;BME280_pressure;Samples;Min_cycle;Max_cycle;Signal;HPM_P1;HPM_P2
2022/04/20 00:02:10;;;;;;;;;8.50;8.50;;;;;11.67;64.93;-18801.34;5025134;28;10408;-71
2022/04/20 00:04:37;;;;;;;;;16.25;13.50;;;;;11.55;64.88;-18797.72;5032980;28;10373;-70
2022/04/20 00:07:03;;;;;;;;;13.00;12.50;;;;;11.73;64.40;-18803.16;5022836;28;10503;-71
2022/04/20 00:09:30;;;;;;;;;10.00;8.25;;;;;11.71;63.93;-18802.56;5023958;28;10476;-70
2022/04/20 00:11:57;;;;;;;;;11.50;9.50;;;;;11.59;63.91;-18799.06;5033025;28;10304;-71
2022/04/20 00:14:23;;;;;;;;;12.50;9.50;;;;;11.60;63.84;-18799.38;5014434;28;10373;-71
2022/04/20 00:16:50;;;;;;;;;15.00;10.50;;;;;11.64;63.83;-18800.59;5030576;28;10380;-69
2022/04/20 00:19:16;;;;;;;;;8.00;8.00;;;;;11.62;63.63;-18799.84;5028298;28;10381;-70
2022/04/20 00:21:42;;;;;;;;;10.75;8.75;;;;;11.59;62.99;-18799.06;5026736;28;10439;-70
2022/04/20 00:24:09;;;;;;;;;11.25;8.75;;;;;11.46;63.17;-18795.16;5032438;28;10381;-70
2022/04/20 00:26:36;;;;;;;;;11.75;11.00;;;;;11.32;63.70;-18790.94;5032103;28;10525;-70
2022/04/20 00:29:02;;;;;;;;;8.00;8.00;;;;;11.40;62.70;-18793.50;5030340;28;11154;-70
2022/04/20 00:31:28;;;;;;;;;11.00;11.00;;;;;11.20;63.49;-18787.47;5032678;28;10353;-70
2022/04/20 00:33:55;;;;;;;;;9.25;7.50;;;;;11.29;63.03;-18790.03;5027328;28;10537;-70
2022/04/20 00:36:22;;;;;;;;;15.75;13.00;;;;;11.34;62.88;-18791.69;5031317;28;10447;-70
2022/04/20 00:38:49;;;;;;;;;11.50;7.75;;;;;11.27;62.75;-18789.44;5030556;28;10614;-70
2022/04/20 00:41:15;;;;;;;;;8.25;8.00;;;;;11.15;62.97;-18785.81;5047855;28;10380;-70
2022/04/20 00:43:42;;;;;;;;;10.75;8.75;;;;;11.28;62.66;-18789.72;5042421;28;10239;-70
2022/04/20 00:46:10;;;;;;;;;9.75;6.75;;;;;11.22;62.64;-18788.06;5032376;28;10466;-71
2022/04/20 00:48:38;;;;;;;;;11.00;11.00;;;;;11.33;62.31;-18791.25;5016333;28;10300;-70
2022/04/20 00:51:05;;;;;;;;;10.00;5.25;;;;;11.32;62.17;-18791.09;5042869;28;10704;-69
2022/04/20 00:53:32;;;;;;;;;10.75;8.25;;;;;11.33;61.70;-18791.38;5048934;28;10405;-72
2022/04/20 00:55:59;;;;;;;;;9.75;7.25;;;;;11.15;62.06;-18785.97;5031350;28;10518;-71
2022/04/20 00:58:26;;;;;;;;;11.25;10.50;;;;;11.08;62.38;-18783.84;5046040;28;10511;-71
2022/04/20 01:00:53;;;;;;;;;6.50;6.50;;;;;11.14;62.45;-18785.50;5027914;28;10562;-70
2022/04/20 01:03:20;;;;;;;;;11.50;8.50;;;;;10.95;62.61;-18780.06;5025187;28;10286;-72
2022/04/20 01:06:06;;;;;;;;;5.75;5.75;;;;;11.14;62.15;-18785.50;5025916;28;10432;-71
2022/04/20 01:08:58;;;;;;;;;6.75;6.00;;;;;11.23;62.11;-18788.38;5029101;28;10310;-70
2022/04/20 01:11:45;;;;;;;;;10.00;8.00;;;;;10.83;62.36;-18776.47;5031401;28;10383;-71
2022/04/20 01:14:31;;;;;;;;;11.50;8.00;;;;;11.02;62.34;-18782.03;5047864;28;10560;-70
2022/04/20 01:17:12;;;;;;;;;7.25;6.50;;;;;11.07;62.01;-18783.69;5044793;28;10544;-70
2022/04/20 01:20:02;;;;;;;;;9.75;8.75;;;;;11.04;61.75;-18782.63;5021792;28;11233;-72
2022/04/20 01:22:49;;;;;;;;;7.50;6.00;;;;;10.85;61.19;-18776.91;5007415;28;10557;-73
2022/04/20 01:25:25;;;;;;;;;10.50;7.25;;;;;10.85;62.01;-18777.06;5015694;28;10393;-71
2022/04/20 01:28:24;;;;;;;;;9.25;7.25;;;;;10.74;62.18;-18773.75;5019956;28;10491;-69
2022/04/20 01:30:58;;;;;;;;;7.25;6.25;;;;;10.80;61.55;-18775.56;5019165;28;11291;-68
2022/04/20 01:33:34;;;;;;;;;11.50;8.25;;;;;10.98;60.85;-18780.84;5038654;28;10614;-71
2022/04/20 01:36:01;;;;;;;;;10.00;6.25;;;;;10.90;60.85;-18778.56;5031519;28;10506;-71
2022/04/20 01:38:27;;;;;;;;;8.00;7.25;;;;;10.88;61.07;-18777.81;5032995;28;10442;-71
2022/04/20 01:40:54;;;;;;;;;6.25;6.25;;;;;11.00;61.07;-18781.59;5029987;28;10421;-71
2022/04/20 01:43:21;;;;;;;;;7.00;7.00;;;;;10.73;61.39;-18773.44;5031019;28;10369;-72
2022/04/20 01:46:06;;;;;;;;;6.00;6.00;;;;;10.93;60.60;-18779.47;5030203;28;10457;-70
2022/04/20 01:48:51;;;;;;;;;8.00;7.50;;;;;10.82;60.61;-18776.00;5014085;28;10442;-71
2022/04/20 01:51:46;;;;;;;;;5.00;4.75;;;;;10.83;60.74;-18776.31;5043444;28;10550;-71
2022/04/20 01:54:25;;;;;;;;;9.50;8.50;;;;;10.71;60.98;-18772.84;5045467;28;10361;-70
2022/04/20 01:56:58;;;;;;;;;7.50;7.50;;;;;10.69;61.07;-18772.38;5027665;28;11461;-70
2022/04/20 01:59:43;;;;;;;;;7.50;7.50;;;;;10.67;61.21;-18771.78;5024933;28;10604;-70
2022/04/20 02:02:38;;;;;;;;;6.50;6.50;;;;;10.74;61.53;-18773.75;5026044;28;10473;-70
2022/04/20 02:05:22;;;;;;;;;9.00;8.00;;;;;10.64;61.12;-18770.72;5013104;28;10648;-70
2022/04/20 02:07:53;;;;;;;;;7.00;7.00;;;;;10.67;61.57;-18771.78;5028566;28;10494;-70
2022/04/20 02:10:28;;;;;;;;;8.50;8.50;;;;;10.66;61.53;-18771.34;5030297;28;10619;-70
2022/04/20 02:12:55;;;;;;;;;8.00;7.75;;;;;10.66;60.86;-18771.47;5028818;28;10617;-70
2022/04/20 02:15:32;;;;;;;;;7.25;6.50;;;;;10.73;60.69;-18773.59;5046080;28;10535;-70
2022/04/20 02:18:01;;;;;;;;;4.75;4.25;;;;;10.45;61.09;-18765.28;5029484;28;11134;-70
2022/04/20 02:20:51;;;;;;;;;8.00;6.75;;;;;10.64;60.36;-18770.88;5020578;28;10451;-69
2022/04/20 02:23:17;;;;;;;;;13.25;8.75;;;;;10.65;60.40;-18771.19;5009166;28;10645;-68
2022/04/20 02:25:44;;;;;;;;;9.75;8.00;;;;;10.66;60.57;-18771.47;5011624;28;10639;-68
2022/04/20 02:28:10;;;;;;;;;8.00;6.00;;;;;10.60;60.26;-18769.50;5026434;28;11207;-68
2022/04/20 02:30:37;;;;;;;;;7.25;7.00;;;;;10.62;60.00;-18770.28;5027377;28;11180;-69
2022/04/20 02:33:03;;;;;;;;;9.00;6.00;;;;;10.70;60.34;-18772.53;5027570;28;10594;-67
2022/04/20 02:35:31;;;;;;;;;5.00;5.00;;;;;10.65;60.42;-18771.19;5038419;28;10485;-68
2022/04/20 02:37:58;;;;;;;;;6.00;5.00;;;;;10.68;60.20;-18771.94;5028010;28;10294;-70
2022/04/20 02:40:25;;;;;;;;;3.50;3.50;;;;;10.76;60.01;-18774.34;5028648;28;10520;-68
2022/04/20 02:42:52;;;;;;;;;7.50;5.00;;;;;10.68;59.99;-18771.94;5045064;28;10444;-69
2022/04/20 02:45:19;;;;;;;;;6.25;6.00;;;;;10.65;59.91;-18771.19;5044216;28;10371;-70
2022/04/20 02:47:46;;;;;;;;;7.00;6.00;;;;;10.60;59.56;-18769.66;5027630;28;10595;-69
2022/04/20 02:50:12;;;;;;;;;6.00;6.00;;;;;10.59;60.22;-18769.38;5028930;28;10402;-71
2022/04/20 02:52:39;;;;;;;;;7.00;7.00;;;;;10.45;60.23;-18765.16;5028570;28;10462;-71
2022/04/20 02:55:07;;;;;;;;;8.00;7.00;;;;;10.60;60.21;-18769.50;5029168;28;10446;-71
2022/04/20 02:57:34;;;;;;;;;4.50;3.00;;;;;10.55;59.96;-18768.00;5012977;28;11180;-72
2022/04/20 03:00:00;;;;;;;;;2.75;2.75;;;;;10.57;60.04;-18768.75;5044538;28;10382;-69
2022/04/20 03:02:28;;;;;;;;;8.50;7.75;;;;;10.47;59.83;-18765.75;5028350;28;10408;-68
2022/04/20 03:04:55;;;;;;;;;5.75;5.75;;;;;10.39;59.67;-18763.34;5029956;28;10498;-70
2022/04/20 03:07:22;;;;;;;;;6.25;6.25;;;;;10.34;59.81;-18761.97;5014999;28;10473;-69
2022/04/20 03:09:52;;;;;;;;;4.50;4.50;;;;;10.52;59.44;-18767.25;5028691;28;10350;-70
2022/04/20 03:12:20;;;;;;;;;6.25;4.75;;;;;10.55;59.92;-18768.00;5038591;28;10264;-70
2022/04/20 03:14:54;;;;;;;;;6.00;5.75;;;;;10.37;60.31;-18762.72;5027463;28;10353;-69
2022/04/20 03:17:22;;;;;;;;;5.25;5.25;;;;;10.33;60.94;-18761.53;5024548;28;10319;-69
2022/04/20 03:19:48;;;;;;;;;4.75;4.75;;;;;10.32;60.84;-18761.38;5035441;28;10614;-69
2022/04/20 03:22:15;;;;;;;;;6.25;6.25;;;;;10.39;60.55;-18763.34;5044444;28;10293;-69
2022/04/20 03:24:42;;;;;;;;;6.50;5.25;;;;;10.40;60.44;-18763.78;5030901;28;10292;-69
2022/04/20 03:27:21;;;;;;;;;5.75;4.25;;;;;10.30;60.34;-18760.63;5041070;28;10312;-71
2022/04/20 03:29:53;;;;;;;;;7.50;6.25;;;;;10.32;60.31;-18761.22;5028744;28;10419;-70
2022/04/20 03:32:22;;;;;;;;;1.75;1.75;;;;;10.32;60.47;-18761.38;5041354;28;10471;-70
2022/04/20 03:34:48;;;;;;;;;10.00;6.00;;;;;10.31;60.42;-18760.91;5029196;28;10367;-72
2022/04/20 03:37:15;;;;;;;;;5.50;4.00;;;;;10.38;59.78;-18763.03;5041351;28;10486;-70
2022/04/20 03:39:41;;;;;;;;;3.50;3.50;;;;;10.26;59.97;-18759.41;5030467;28;10450;-70
2022/04/20 03:42:08;;;;;;;;;1.25;1.25;;;;;10.11;60.21;-18755.03;5024439;28;10921;-70
2022/04/20 03:44:35;;;;;;;;;7.00;4.75;;;;;10.12;60.24;-18755.47;5048799;28;10142;-70
2022/04/20 03:47:02;;;;;;;;;9.00;6.00;;;;;10.01;60.30;-18752.16;5021454;28;11168;-69
2022/04/20 03:49:30;;;;;;;;;8.00;7.00;;;;;10.08;60.34;-18754.28;5015050;28;10455;-71
2022/04/20 03:51:57;;;;;;;;;5.75;5.75;;;;;10.00;59.85;-18751.72;5032984;28;10450;-70
2022/04/20 03:54:30;;;;;;;;;5.25;5.25;;;;;10.08;59.73;-18754.28;5029438;28;11113;-71
2022/04/20 03:57:03;;;;;;;;;6.00;6.00;;;;;9.96;59.65;-18750.66;5031688;28;10430;-70
2022/04/20 03:59:37;;;;;;;;;5.75;5.75;;;;;9.94;59.52;-18749.91;5040185;28;10577;-71
2022/04/20 04:02:05;;;;;;;;;6.50;6.25;;;;;9.96;59.64;-18750.66;5031278;28;11451;-70
2022/04/20 04:04:36;;;;;;;;;6.00;6.00;;;;;9.78;60.29;-18745.22;5031760;28;10604;-70
2022/04/20 04:07:12;;;;;;;;;7.00;7.00;;;;;9.66;59.91;-18741.75;5018589;28;10678;-70
2022/04/20 04:09:39;;;;;;;;;6.25;6.25;;;;;9.93;60.00;-18749.59;5029620;28;10389;-70
2022/04/20 04:12:07;;;;;;;;;5.25;5.25;;;;;9.93;60.03;-18749.59;5031315;28;10462;-70
2022/04/20 04:14:42;;;;;;;;;4.25;3.00;;;;;9.87;59.70;-18747.94;5047251;28;10447;-70
2022/04/20 04:17:09;;;;;;;;;5.25;5.25;;;;;9.91;59.81;-18749.13;5027767;28;10421;-69
2022/04/20 04:19:37;;;;;;;;;2.00;2.00;;;;;9.93;59.63;-18749.59;5023181;28;10320;-69
2022/04/20 04:22:05;;;;;;;;;6.75;5.00;;;;;9.76;59.13;-18744.75;5030930;28;10231;-71
2022/04/20 04:24:35;;;;;;;;;7.75;5.00;;;;;9.82;59.37;-18746.44;5047202;28;10391;-70
2022/04/20 04:27:10;;;;;;;;;6.75;6.00;;;;;9.76;59.72;-18744.75;5030704;28;10480;-70
2022/04/20 04:29:40;;;;;;;;;7.75;7.00;;;;;9.56;59.48;-18738.88;5030009;28;10504;-70
2022/04/20 04:32:07;;;;;;;;;2.25;2.25;;;;;9.60;60.13;-18739.94;5030608;28;10545;-70
2022/04/20 04:34:35;;;;;;;;;5.00;4.25;;;;;9.72;60.31;-18743.41;5042361;28;10440;-69
2022/04/20 04:37:06;;;;;;;;;5.75;4.00;;;;;9.80;60.10;-18745.97;5029452;28;10500;-71
2022/04/20 04:39:34;;;;;;;;;4.00;4.00;;;;;9.77;59.95;-18744.91;5046718;28;10595;-71
2022/04/20 04:42:06;;;;;;;;;7.25;6.00;;;;;9.66;59.57;-18741.75;5044390;28;10531;-71
2022/04/20 04:44:34;;;;;;;;;4.00;4.00;;;;;9.80;59.63;-18745.97;5030890;28;10524;-68
2022/04/20 04:49:50;;;;;;;;;4.00;4.00;;;;;9.85;58.80;-18747.47;5029523;28;11363;-69
2022/04/20 04:52:17;;;;;;;;;2.25;2.25;;;;;9.83;58.85;-18746.72;5040312;28;10436;-68
2022/04/20 04:54:51;;;;;;;;;3.50;3.00;;;;;9.88;58.73;-18748.38;5039569;28;10507;-68
2022/04/20 04:57:18;;;;;;;;;6.25;3.00;;;;;9.74;58.31;-18744.16;5010819;28;10606;-70
2022/04/20 04:59:44;;;;;;;;;5.00;5.00;;;;;9.67;58.32;-18741.91;5027869;28;11253;-70
2022/04/20 05:02:13;;;;;;;;;3.50;3.00;;;;;9.87;58.05;-18747.94;5027570;28;10607;-70
2022/04/20 05:04:40;;;;;;;;;3.25;3.25;;;;;10.44;56.40;-18764.84;5038396;28;10532;-70
2022/04/20 05:07:09;;;;;;;;;8.50;7.25;;;;;10.55;55.94;-18768.00;5029974;28;10538;-71
2022/04/20 05:09:44;;;;;;;;;7.00;7.00;;;;;10.98;54.54;-18780.97;5029451;28;10584;-71
2022/04/20 05:12:11;;;;;;;;;6.25;6.25;;;;;11.21;54.15;-18787.63;5029018;28;10531;-70
2022/04/20 05:14:40;;;;;;;;;4.00;1.50;;;;;11.70;52.50;-18802.41;5046866;28;10530;-71
2022/04/20 05:17:07;;;;;;;;;3.75;3.75;;;;;11.18;53.67;-18786.88;5027197;28;10261;-70
2022/04/20 05:19:34;;;;;;;;;8.00;8.00;;;;;10.78;54.86;-18775.09;5038315;28;10402;-71
2022/04/20 05:22:12;;;;;;;;;4.75;4.50;;;;;10.37;55.64;-18762.72;5039387;28;10630;-70
2022/04/20 05:24:41;;;;;;;;;6.50;6.50;;;;;10.25;56.00;-18759.09;5029982;28;10374;-71
2022/04/20 05:27:13;;;;;;;;;2.50;2.50;;;;;10.21;56.04;-18758.06;5042823;28;10410;-70
2022/04/20 05:29:51;;;;;;;;;7.00;4.75;;;;;10.27;56.24;-18759.88;5030194;28;10514;-69
2022/04/20 05:32:17;;;;;;;;;7.25;5.25;;;;;10.08;56.31;-18754.13;5043277;28;11224;-69
2022/04/20 05:34:44;;;;;;;;;7.00;7.00;;;;;10.16;56.58;-18756.69;5046354;28;10463;-69
2022/04/20 05:42:46;;;;;;;;;6.00;4.75;;;;;10.18;56.71;-18757.28;5027040;28;10441;-69
2022/04/20 05:45:12;;;;;;;;;7.50;5.75;;;;;10.08;56.38;-18754.13;5029727;28;10497;-68
2022/04/20 05:47:43;;;;;;;;;5.75;4.00;;;;;10.13;56.26;-18755.63;5045174;28;10612;-70
2022/04/20 05:50:10;;;;;;;;;4.50;4.50;;;;;10.16;56.31;-18756.53;5029518;28;10720;-69
2022/04/20 05:52:36;;;;;;;;;6.00;5.25;;;;;10.06;56.07;-18753.53;5021989;28;10543;-69
2022/04/20 05:55:04;;;;;;;;;7.00;6.25;;;;;10.10;55.92;-18754.88;5042019;28;10375;-70
2022/04/20 05:57:35;;;;;;;;;5.00;5.00;;;;;10.44;55.16;-18764.84;5045061;28;10544;-69
2022/04/20 06:00:02;;;;;;;;;6.00;3.00;;;;;10.70;54.62;-18772.69;5025947;28;10453;-68
2022/04/20 06:02:33;;;;;;;;;6.00;4.75;;;;;11.02;53.36;-18782.03;5030570;28;10641;-68
2022/04/20 06:05:00;;;;;;;;;6.25;6.25;;;;;11.18;52.35;-18786.72;5021386;28;11500;-68
2022/04/20 06:07:42;;;;;;;;;6.25;6.25;;;;;11.42;50.96;-18793.81;5023909;28;10460;-68
2022/04/20 06:10:23;;;;;;;;;3.75;3.50;;;;;11.34;50.83;-18791.53;5022863;28;10421;-69
2022/04/20 06:12:56;;;;;;;;;5.00;5.00;;;;;11.77;50.37;-18804.34;5045270;28;10307;-69
2022/04/20 06:15:38;;;;;;;;;5.50;5.00;;;;;12.23;48.97;-18818.09;5024856;28;10583;-69
2022/04/20 06:18:14;;;;;;;;;5.00;5.00;;;;;12.23;48.46;-18817.94;5020443;28;10265;-70
2022/04/20 06:20:52;;;;;;;;;5.75;5.75;;;;;12.44;47.49;-18824.25;5025437;28;10120;-69
2022/04/20 06:23:27;;;;;;;;;5.00;5.00;;;;;12.18;48.49;-18816.44;5009184;28;10300;-70
2022/04/20 06:26:12;;;;;;;;;2.75;2.75;;;;;12.63;48.25;-18829.84;5017172;28;10236;-70
2022/04/20 06:28:59;;;;;;;;;4.75;3.50;;;;;12.89;47.36;-18837.53;5022201;28;10132;-71
2022/04/20 06:31:45;;;;;;;;;6.00;5.00;;;;;12.73;47.46;-18832.84;5044689;28;10004;-71
2022/04/20 06:34:26;;;;;;;;;5.50;3.25;;;;;12.52;47.75;-18826.53;5021467;28;10184;-71
2022/04/20 06:37:15;;;;;;;;;7.25;5.00;;;;;12.62;46.96;-18829.69;5021451;28;10212;-71
2022/04/20 06:40:02;;;;;;;;;5.00;5.00;;;;;12.73;46.68;-18832.69;4990928;28;10070;-71
2022/04/20 06:43:05;;;;;;;;;5.25;4.00;;;;;13.05;46.44;-18842.34;4935702;28;10009;-71
2022/04/20 06:45:35;;;;;;;;;7.75;6.75;;;;;12.60;46.56;-18829.09;5003846;28;10182;-71
2022/04/20 06:48:18;;;;;;;;;3.00;3.00;;;;;12.76;46.24;-18833.75;5010280;28;10187;-71
2022/04/20 06:50:53;;;;;;;;;4.00;4.00;;;;;12.77;46.98;-18833.91;5018395;28;9989;-72
2022/04/20 06:59:10;;;;;;;;;8.00;6.00;;;;;13.20;45.49;-18846.88;5038035;28;10094;-69
2022/04/20 07:01:59;;;;;;;;;3.00;3.00;;;;;13.43;45.15;-18853.50;5020200;28;10079;-69
2022/04/20 07:04:49;;;;;;;;;6.00;5.00;;;;;13.22;44.57;-18847.47;5011617;28;9915;-70
2022/04/20 07:07:36;;;;;;;;;6.00;6.00;;;;;13.04;45.24;-18841.88;5022733;28;9965;-70
2022/04/20 07:10:36;;;;;;;;;5.00;5.00;;;;;12.95;45.32;-18839.34;5022896;28;9988;-70
2022/04/20 07:13:08;;;;;;;;;5.00;5.00;;;;;13.42;45.30;-18853.34;5021219;28;9765;-70
2022/04/20 07:15:35;;;;;;;;;2.50;2.50;;;;;13.65;44.31;-18859.97;5020554;28;9954;-70
2022/04/20 07:18:02;;;;;;;;;5.00;5.00;;;;;13.67;43.78;-18860.56;5021014;28;9758;-69
2022/04/20 07:20:51;;;;;;;;;5.00;3.00;;;;;13.11;44.96;-18844.00;4993689;28;9982;-69
2022/04/20 07:23:36;;;;;;;;;5.00;2.50;;;;;13.27;44.31;-18848.69;5020725;28;9734;-70
2022/04/20 07:26:26;;;;;;;;;5.75;5.00;;;;;13.43;44.10;-18853.66;5015684;28;9831;-70
2022/04/20 07:29:24;;;;;;;;;5.50;5.50;;;;;13.55;43.40;-18857.09;5000102;28;10644;-70
2022/04/20 07:31:57;;;;;;;;;7.50;6.75;;;;;13.39;43.50;-18852.28;5021213;28;9795;-70
2022/04/20 07:34:42;;;;;;;;;5.50;5.50;;;;;13.36;44.40;-18851.53;5029288;28;9773;-70
2022/04/20 07:37:31;;;;;;;;;2.50;2.50;;;;;13.36;43.68;-18851.38;5010304;28;9852;-70
2022/04/20 07:40:16;;;;;;;;;6.00;6.00;;;;;13.68;43.85;-18860.88;5031205;28;9682;-70
2022/04/20 07:43:04;;;;;;;;;7.25;4.00;;;;;13.65;45.48;-18860.13;5044963;28;9956;-70
2022/04/20 07:45:49;;;;;;;;;6.75;5.50;;;;;13.99;45.22;-18870.22;5025277;28;9902;-70
2022/04/20 07:48:29;;;;;;;;;5.00;5.00;;;;;13.82;45.33;-18865.09;5027795;28;10628;-70
2022/04/20 07:51:01;;;;;;;;;8.00;6.00;;;;;13.64;46.88;-18859.81;5044573;28;9733;-70
2022/04/20 07:53:36;;;;;;;;;6.25;5.00;;;;;13.84;47.56;-18865.84;5025634;28;9774;-70
2022/04/20 07:56:31;;;;;;;;;7.75;6.50;;;;;14.06;47.24;-18872.31;5026813;28;9827;-69
2022/04/20 07:59:15;;;;;;;;;6.50;5.50;;;;;13.97;47.00;-18869.47;5046164;28;9925;-69
2022/04/20 08:01:47;;;;;;;;;9.25;8.50;;;;;14.03;47.04;-18871.25;5037420;28;9834;-70
2022/04/20 08:04:52;;;;;;;;;1.25;1.00;;;;;14.56;46.01;-18886.94;5026220;28;9809;-69
2022/04/20 08:07:24;;;;;;;;;8.75;7.25;;;;;14.20;44.65;-18876.38;5039937;28;9613;-69
2022/04/20 08:09:52;;;;;;;;;4.50;3.00;;;;;14.13;44.75;-18874.28;5024068;28;9745;-70
2022/04/20 08:12:19;;;;;;;;;5.00;5.00;;;;;14.27;44.35;-18878.50;5024385;28;9675;-70
2022/04/20 08:14:45;;;;;;;;;6.75;5.75;;;;;14.35;44.53;-18880.91;5024947;28;9897;-70
2022/04/20 08:17:20;;;;;;;;;4.00;3.00;;;;;14.39;44.29;-18881.97;5024251;28;9765;-69
2022/04/20 08:20:08;;;;;;;;;7.25;7.00;;;;;14.22;45.29;-18877.00;5023756;28;9762;-69
2022/04/20 08:22:44;;;;;;;;;5.00;5.00;;;;;14.52;44.50;-18885.72;5027350;28;9833;-70
2022/04/20 08:25:12;;;;;;;;;6.75;6.00;;;;;13.95;44.76;-18868.84;5030021;28;9686;-69
2022/04/20 08:27:39;;;;;;;;;8.00;6.00;;;;;14.00;45.19;-18870.50;5021752;28;9597;-70
2022/04/20 08:30:07;;;;;;;;;5.25;5.25;;;;;14.53;44.47;-18886.03;5019665;28;9760;-69
2022/04/20 08:32:35;;;;;;;;;6.00;5.75;;;;;14.90;44.44;-18897.00;5016509;28;9719;-69
2022/04/20 08:35:01;;;;;;;;;7.50;6.00;;;;;14.79;44.61;-18893.84;5016842;28;9656;-69
2022/04/20 08:37:28;;;;;;;;;6.50;6.00;;;;;15.10;43.42;-18903.03;5016665;28;9810;-70
2022/04/20 08:39:54;;;;;;;;;6.25;6.00;;;;;14.43;44.96;-18883.31;5015054;28;9606;-70
2022/04/20 08:42:22;;;;;;;;;8.00;6.50;;;;;14.70;44.62;-18891.16;5014329;28;9538;-69
2022/04/20 08:44:50;;;;;;;;;7.50;7.50;;;;;14.44;44.96;-18883.63;5015365;28;9696;-69
2022/04/20 08:47:22;;;;;;;;;8.75;6.75;;;;;14.18;44.62;-18875.78;5015621;28;9614;-68
2022/04/20 08:49:50;;;;;;;;;6.00;6.00;;;;;14.96;43.98;-18898.97;5034561;28;9862;-69
2022/04/20 08:52:37;;;;;;;;;8.00;8.00;;;;;14.88;44.81;-18896.56;5016694;28;9616;-68
2022/04/20 08:55:18;;;;;;;;;9.00;7.00;;;;;14.78;44.48;-18893.56;5012676;28;10484;-68
2022/04/20 08:57:46;;;;;;;;;9.00;8.75;;;;;15.39;43.90;-18911.63;5016179;28;9756;-71
2022/04/20 09:00:20;;;;;;;;;4.50;4.50;;;;;14.87;43.30;-18896.25;5013647;28;9858;-68
2022/04/20 09:02:56;;;;;;;;;6.00;5.00;;;;;15.72;42.79;-18921.41;5016919;28;10274;-69
2022/04/20 09:05:24;;;;;;;;;5.00;5.00;;;;;16.19;42.87;-18935.22;5011281;28;9612;-69
2022/04/20 09:07:52;;;;;;;;;7.25;7.25;;;;;15.86;44.98;-18925.59;5014026;28;9495;-69
2022/04/20 09:10:18;;;;;;;;;8.50;7.50;;;;;15.73;44.99;-18921.53;5023374;28;9619;-69
2022/04/20 09:12:46;;;;;;;;;10.50;8.75;;;;;15.76;45.58;-18922.59;5028301;28;10333;-67
2022/04/20 09:15:28;;;;;;;;;7.00;5.50;;;;;16.37;44.47;-18940.66;5014951;28;9518;-68
2022/04/20 09:17:56;;;;;;;;;11.50;10.00;;;;;15.32;45.22;-18909.50;5012302;28;9567;-69
2022/04/20 09:20:23;;;;;;;;;10.50;8.00;;;;;15.51;44.92;-18915.22;5013543;28;9609;-69
2022/04/20 09:23:07;;;;;;;;;11.00;9.50;;;;;16.02;45.00;-18930.13;5018482;28;9543;-69
2022/04/20 09:25:39;;;;;;;;;10.00;9.50;;;;;15.71;43.82;-18921.09;5014405;28;9687;-69
2022/04/20 09:28:08;;;;;;;;;11.00;9.75;;;;;15.01;46.72;-18900.47;5015831;28;9729;-69
2022/04/20 09:30:40;;;;;;;;;10.75;10.75;;;;;14.97;47.53;-18899.13;5015260;28;9505;-69
2022/04/20 09:33:09;;;;;;;;;8.50;8.00;;;;;15.73;47.11;-18921.69;5012828;28;9879;-70
2022/04/20 09:35:45;;;;;;;;;12.75;12.00;;;;;15.59;47.07;-18917.47;5015775;28;10498;-70
2022/04/20 09:38:13;;;;;;;;;13.00;13.00;;;;;15.75;46.36;-18922.16;5000625;28;9710;-70
2022/04/20 09:41:10;;;;;;;;;12.75;12.00;;;;;15.27;48.05;-18908.00;5014064;28;9605;-70
2022/04/20 09:43:38;;;;;;;;;10.75;7.25;;;;;15.43;47.58;-18912.81;5016992;28;9737;-70
2022/04/20 09:49:04;;;;;;;;;10.50;8.75;;;;;16.34;45.50;-18939.59;5013523;28;9630;-70
2022/04/20 09:51:42;;;;;;;;;15.00;12.50;;;;;15.48;47.41;-18914.16;5013224;28;9738;-70
2022/04/20 09:54:26;;;;;;;;;7.50;7.50;;;;;16.21;46.54;-18935.97;5019724;28;9779;-70
2022/04/20 09:57:08;;;;;;;;;7.00;7.00;;;;;16.09;46.37;-18932.38;5012242;28;9688;-70
2022/04/20 09:59:35;;;;;;;;;12.75;9.25;;;;;16.18;45.34;-18935.09;5015249;28;9810;-71
2022/04/20 10:02:12;;;;;;;;;12.75;12.00;;;;;16.04;45.07;-18930.72;5016817;28;9680;-70
2022/04/20 10:04:41;;;;;;;;;11.00;8.50;;;;;16.28;45.19;-18938.09;5012396;28;10479;-70
2022/04/20 10:07:08;;;;;;;;;7.00;7.00;;;;;16.55;44.91;-18945.91;5014643;28;9748;-71
2022/04/20 10:09:34;;;;;;;;;9.75;9.75;;;;;16.51;45.58;-18944.69;5015123;28;9654;-70
2022/04/20 10:12:01;;;;;;;;;6.50;6.50;;;;;17.08;44.21;-18961.69;5012049;28;9550;-70
2022/04/20 10:17:24;;;;;;;;;9.25;7.50;;;;;17.01;42.64;-18959.59;5014333;28;9548;-70
2022/04/20 10:19:52;;;;;;;;;13.00;9.75;;;;;16.07;43.42;-18931.63;5012565;28;9528;-69
2022/04/20 10:22:21;;;;;;;;;8.00;8.00;;;;;16.39;43.72;-18941.09;5028639;28;9363;-70
2022/04/20 10:24:51;;;;;;;;;7.00;7.00;;;;;17.08;42.06;-18961.53;5014756;28;9653;-69
2022/04/20 10:27:28;;;;;;;;;10.00;8.00;;;;;16.92;42.22;-18956.88;5015623;28;9569;-72
2022/04/20 10:30:01;;;;;;;;;9.00;9.00;;;;;17.15;41.36;-18963.81;5017099;28;9556;-69
2022/04/20 10:32:40;;;;;;;;;7.25;7.25;;;;;17.03;41.73;-18960.03;5012468;28;9537;-69
2022/04/20 10:35:11;;;;;;;;;8.00;7.67;;;;;16.81;41.41;-18953.56;5015200;28;9517;-69
2022/04/20 10:38:11;;;;;;;;;7.00;7.00;;;;;17.50;40.77;-18974.00;5032164;28;9349;-69
2022/04/20 10:41:07;;;;;;;;;8.67;8.67;;;;;16.84;41.11;-18954.47;5016848;28;9247;-70
2022/04/20 10:43:42;;;;;;;;;6.00;5.67;;;;;17.27;40.35;-18967.25;5013976;28;10451;-69
2022/04/20 10:46:16;;;;;;;;;6.67;5.67;;;;;17.34;40.50;-18969.22;5014389;28;9567;-70
2022/04/20 10:48:57;;;;;;;;;7.67;7.67;;;;;17.24;39.57;-18966.34;5015369;28;9333;-70
2022/04/20 10:51:30;;;;;;;;;7.67;7.67;;;;;17.18;39.72;-18964.69;5014644;28;9388;-69
2022/04/20 10:54:24;;;;;;;;;7.00;6.33;;;;;17.13;37.15;-18963.19;5017678;28;9328;-70
2022/04/20 10:57:10;;;;;;;;;11.33;11.33;;;;;17.05;37.94;-18960.63;5029608;28;9247;-70
2022/04/20 10:59:39;;;;;;;;;8.67;8.00;;;;;17.24;37.82;-18966.34;5014092;28;9433;-70
2022/04/20 11:02:08;;;;;;;;;7.33;6.00;;;;;17.48;36.58;-18973.56;5014811;28;10000;-70
2022/04/20 11:04:42;;;;;;;;;6.33;6.33;;;;;17.20;36.07;-18965.31;5011701;28;9274;-69
2022/04/20 11:07:18;;;;;;;;;6.00;6.00;;;;;17.35;36.45;-18969.66;5013072;28;9981;-70
2022/04/20 11:09:45;;;;;;;;;7.67;5.33;;;;;17.60;34.96;-18976.88;5016115;28;9169;-69
2022/04/20 11:21:03;;;;;;;;;5.33;5.33;;;;;17.52;34.57;-18974.63;5013282;28;9183;-67
2022/04/20 11:24:03;;;;;;;;;7.33;7.00;;;;;16.88;35.76;-18955.84;5018458;28;9769;-69
2022/04/20 11:26:49;;;;;;;;;6.00;6.00;;;;;17.03;34.53;-18960.03;5016551;28;9171;-68
2022/04/20 11:29:18;;;;;;;;;6.00;6.00;;;;;17.42;34.36;-18971.63;5013364;28;9317;-69
2022/04/20 11:31:48;;;;;;;;;4.33;4.33;;;;;17.41;33.46;-18971.31;5014908;28;9158;-69
2022/04/20 11:34:20;;;;;;;;;9.67;5.33;;;;;17.75;32.51;-18981.53;5013671;28;9208;-69
2022/04/20 11:36:51;;;;;;;;;4.33;3.00;;;;;17.62;33.36;-18977.47;5022409;28;9881;-71
2022/04/20 11:39:20;;;;;;;;;6.00;6.00;;;;;17.53;32.46;-18975.06;5023185;28;9180;-69
2022/04/20 11:41:48;;;;;;;;;8.00;8.00;;;;;17.50;32.17;-18974.00;5013282;28;9092;-72
2022/04/20 11:44:22;;;;;;;;;5.33;5.33;;;;;17.18;32.54;-18964.56;5013462;28;9260;-69
2022/04/20 11:46:52;;;;;;;;;7.00;7.00;;;;;16.81;32.73;-18953.56;5020556;28;9330;-69
2022/04/20 11:49:19;;;;;;;;;3.67;3.00;;;;;17.20;34.02;-18965.31;5020919;28;9492;-71
2022/04/20 11:51:57;;;;;;;;;7.67;5.00;;;;;17.26;32.66;-18966.94;5017798;28;9247;-73
2022/04/20 11:54:28;;;;;;;;;6.00;6.00;;;;;17.46;32.18;-18972.97;5022004;28;9236;-70
2022/04/20 11:57:04;;;;;;;;;6.67;6.67;;;;;16.95;32.25;-18957.63;5020044;28;9332;-70
2022/04/20 11:59:30;;;;;;;;;6.00;5.67;;;;;17.22;32.14;-18965.75;5018469;28;9169;-70
2022/04/20 12:01:57;;;;;;;;;3.00;3.00;;;;;17.42;31.86;-18971.63;5015097;28;9234;-70
2022/04/20 12:04:26;;;;;;;;;4.67;4.67;;;;;17.69;32.54;-18979.72;5014006;28;9156;-68
2022/04/20 12:06:54;;;;;;;;;6.67;6.67;;;;;17.33;32.96;-18968.91;5017829;28;9315;-72
2022/04/20 12:09:24;;;;;;;;;8.00;4.33;;;;;16.63;33.35;-18948.31;5020425;28;9272;-69
2022/04/20 12:11:52;;;;;;;;;5.33;5.33;;;;;17.14;33.64;-18963.34;5014584;28;9213;-69
2022/04/20 12:14:19;;;;;;;;;6.33;6.33;;;;;17.30;34.43;-18968.00;5017332;28;9173;-69
2022/04/20 12:16:47;;;;;;;;;5.67;5.67;;;;;18.01;33.29;-18989.03;5020489;28;9401;-69
2022/04/20 12:19:22;;;;;;;;;6.00;6.00;;;;;17.42;33.49;-18971.75;5016113;28;9054;-69
2022/04/20 12:21:50;;;;;;;;;8.33;6.67;;;;;17.54;33.91;-18975.38;5019584;28;9273;-68
2022/04/20 12:24:22;;;;;;;;;4.00;4.00;;;;;18.09;33.21;-18991.59;5013538;28;9066;-69